Time;durP1;ratioP1;P1;durP2;ratioP2;P2;SDS_P1;SDS_P2;PMS_P1;PMS_P2;Temp;Humidity;BMP_temperature;BMP_pressure;BME280_temperature;BME280_humidity;BME280_pressure;Samples;Min_cycle;Max_cycle;Signal;HPM_P1;HPM_P2
2022/02/16 00:02:07;;;;;;;9.57;7.72;;;;;;;;;;5038456;28;20276;-67
2022/02/16 00:04:33;;;;;;;10.48;7.82;;;;;;;;;;5037584;28;20197;-67
2022/02/16 00:06:58;;;;;;;11.93;7.60;;;;;;;;;;5042160;28;20233;-67
2022/02/16 00:09:23;;;;;;;10.15;7.72;;;;;;;;;;5038261;28;20185;-65
2022/02/16 00:11:49;;;;;;;10.48;7.47;;;;;;;;;;5040490;28;20184;-68
2022/02/16 00:14:14;;;;;;;9.32;7.18;;;;;;;;;;5028770;28;20182;-67
2022/02/16 00:16:39;;;;;;;9.02;7.10;;;;;;;;;;5040115;28;20632;-67
2022/02/16 00:19:05;;;;;;;9.73;7.05;;;;;;;;;;5046357;28;20649;-66
2022/02/16 00:21:30;;;;;;;10.15;7.05;;;;;;;;;;5038264;28;20183;-67
2022/02/16 00:23:55;;;;;;;11.68;8.07;;;;;;;;;;5039018;28;20218;-67
2022/02/16 00:26:21;;;;;;;11.52;7.63;;;;;;;;;;5039220;28;20281;-67
2022/02/16 00:28:46;;;;;;;10.88;7.45;;;;;;;;;;5041497;28;20189;-67
2022/02/16 00:31:11;;;;;;;11.15;7.80;;;;;;;;;;5040256;28;20201;-67
2022/02/16 00:33:37;;;;;;;12.95;7.57;;;;;;;;;;5043381;28;20272;-67
2022/02/16 00:36:03;;;;;;;11.98;8.50;;;;;;;;;;5041485;28;20922;-67
2022/02/16 00:38:28;;;;;;;11.68;8.10;;;;;;;;;;5042016;28;20249;-67
2022/02/16 00:40:53;;;;;;;11.63;7.93;;;;;;;;;;5036920;28;20268;-67
2022/02/16 00:43:19;;;;;;;10.82;8.18;;;;;;;;;;5040968;28;20611;-67
2022/02/16 00:45:44;;;;;;;13.13;8.60;;;;;;;;;;5035782;28;20669;-67
2022/02/16 00:48:10;;;;;;;10.98;8.07;;;;;;;;;;5041026;28;20605;-67
2022/02/16 00:50:35;;;;;;;10.70;7.55;;;;;;;;;;5045265;28;20188;-67
2022/02/16 00:53:00;;;;;;;10.30;7.75;;;;;;;;;;5041949;28;20232;-67
2022/02/16 00:55:26;;;;;;;11.35;8.50;;;;;;;;;;5045803;28;20177;-67
2022/02/16 00:57:51;;;;;;;10.77;8.02;;;;;;;;;;5040616;28;20200;-67
2022/02/16 01:00:17;;;;;;;8.45;7.22;;;;;;;;;;5031054;28;20204;-67
2022/02/16 01:02:42;;;;;;;11.80;7.93;;;;;;;;;;5042058;28;20500;-67
2022/02/16 01:05:08;;;;;;;9.93;7.57;;;;;;;;;;5045437;28;20315;-66
2022/02/16 01:07:33;;;;;;;9.73;7.70;;;;;;;;;;5038819;28;20225;-67
2022/02/16 01:09:59;;;;;;;10.75;7.50;;;;;;;;;;5042323;28;20233;-67
2022/02/16 01:12:24;;;;;;;9.80;7.00;;;;;;;;;;5041056;28;20186;-67
2022/02/16 01:14:49;;;;;;;8.88;7.15;;;;;;;;;;5040539;28;20173;-67
2022/02/16 01:17:15;;;;;;;8.68;6.65;;;;;;;;;;5042822;28;20193;-67
2022/02/16 01:19:40;;;;;;;11.90;7.65;;;;;;;;;;5038700;28;20260;-67
2022/02/16 01:22:06;;;;;;;9.45;7.10;;;;;;;;;;5034094;28;20193;-67
2022/02/16 01:24:32;;;;;;;9.18;7.25;;;;;;;;;;5041654;28;20208;-67
2022/02/16 01:26:57;;;;;;;9.50;7.38;;;;;;;;;;5037584;28;20259;-67
2022/02/16 01:29:23;;;;;;;9.52;6.75;;;;;;;;;;5044773;28;20277;-66
2022/02/16 01:31:52;;;;;;;10.43;7.18;;;;;;;;;;5038734;28;20747;-67
2022/02/16 01:34:17;;;;;;;10.60;7.68;;;;;;;;;;5046135;28;20542;-67
2022/02/16 01:36:42;;;;;;;10.02;7.25;;;;;;;;;;5042264;28;20186;-67
2022/02/16 01:39:08;;;;;;;10.15;7.43;;;;;;;;;;5039798;28;20498;-67
2022/02/16 01:41:34;;;;;;;11.60;8.45;;;;;;;;;;5038446;28;20248;-68
2022/02/16 01:44:00;;;;;;;11.52;7.95;;;;;;;;;;5040017;28;20193;-67
2022/02/16 01:46:25;;;;;;;11.18;8.10;;;;;;;;;;5041951;28;20722;-68
2022/02/16 01:48:50;;;;;;;10.45;8.38;;;;;;;;;;5040491;28;20268;-67
2022/02/16 01:51:16;;;;;;;10.27;7.78;;;;;;;;;;5042631;28;20208;-67
2022/02/16 01:53:41;;;;;;;11.52;7.90;;;;;;;;;;5042314;28;20188;-67
2022/02/16 01:56:07;;;;;;;10.77;7.43;;;;;;;;;;5038733;28;20184;-67
2022/02/16 01:58:36;;;;;;;8.98;7.10;;;;;;;;;;5041844;28;20190;-66
2022/02/16 02:01:05;;;;;;;12.05;7.10;;;;;;;;;;5041472;28;20706;-66
2022/02/16 02:03:31;;;;;;;9.55;7.18;;;;;;;;;;5040460;28;20272;-66
2022/02/16 02:05:56;;;;;;;8.68;6.88;;;;;;;;;;5038478;28;20214;-66
2022/02/16 02:08:24;;;;;;;9.70;7.05;;;;;;;;;;5040004;28;20707;-67
2022/02/16 02:10:50;;;;;;;10.95;7.93;;;;;;;;;;5041374;28;20189;-67
2022/02/16 02:13:16;;;;;;;8.57;7.35;;;;;;;;;;5043418;28;20720;-67
2022/02/16 02:15:42;;;;;;;9.10;6.50;;;;;;;;;;5045738;28;20204;-68
2022/02/16 02:18:07;;;;;;;9.73;7.55;;;;;;;;;;5048579;28;20560;-67
2022/02/16 02:20:33;;;;;;;10.43;7.50;;;;;;;;;;5045142;28;20547;-67
2022/02/16 02:22:59;;;;;;;9.60;7.32;;;;;;;;;;5045558;28;20193;-67
2022/02/16 02:25:25;;;;;;;9.75;6.72;;;;;;;;;;5040962;28;20314;-67
2022/02/16 02:27:52;;;;;;;11.77;7.65;;;;;;;;;;5038589;28;20203;-67
2022/02/16 02:30:17;;;;;;;10.07;7.47;;;;;;;;;;5037552;28;20326;-67
2022/02/16 02:32:44;;;;;;;10.52;8.13;;;;;;;;;;5040100;28;20264;-67
2022/02/16 02:35:11;;;;;;;9.18;7.03;;;;;;;;;;5046338;28;20737;-67
2022/02/16 02:37:41;;;;;;;9.60;7.15;;;;;;;;;;5046916;28;20201;-67
2022/02/16 02:40:08;;;;;;;9.75;7.07;;;;;;;;;;5041328;28;20730;-67
2022/02/16 02:42:38;;;;;;;8.15;6.05;;;;;;;;;;5043724;28;20195;-68
2022/02/16 02:45:06;;;;;;;7.53;6.18;;;;;;;;;;5044233;28;20209;-68
2022/02/16 02:47:31;;;;;;;8.77;6.38;;;;;;;;;;5038185;28;20264;-69
2022/02/16 02:49:56;;;;;;;8.90;6.22;;;;;;;;;;5045447;28;20260;-70
2022/02/16 02:52:22;;;;;;;9.15;6.32;;;;;;;;;;5050088;28;20177;-70
2022/02/16 02:54:47;;;;;;;9.10;6.32;;;;;;;;;;5042837;28;20264;-71
2022/02/16 02:57:12;;;;;;;11.05;7.10;;;;;;;;;;5044148;28;20371;-73
2022/02/16 02:59:38;;;;;;;9.65;6.88;;;;;;;;;;5042347;28;20186;-72
2022/02/16 03:02:03;;;;;;;8.57;6.90;;;;;;;;;;5040772;28;20193;-72
2022/02/16 03:04:29;;;;;;;12.45;7.90;;;;;;;;;;5044987;28;20306;-71
2022/02/16 03:06:54;;;;;;;8.80;7.15;;;;;;;;;;5045985;28;20248;-70
2022/02/16 03:09:20;;;;;;;9.77;7.30;;;;;;;;;;5044502;28;20208;-71
2022/02/16 03:11:45;;;;;;;11.90;8.02;;;;;;;;;;5042106;28;20188;-71
2022/02/16 03:14:10;;;;;;;11.18;8.10;;;;;;;;;;5044058;28;20177;-71
2022/02/16 03:16:36;;;;;;;10.95;7.88;;;;;;;;;;5038360;28;20257;-71
2022/02/16 03:19:01;;;;;;;12.63;8.93;;;;;;;;;;5040703;28;20196;-71
2022/02/16 03:21:26;;;;;;;13.02;8.80;;;;;;;;;;5044357;28;20173;-71
2022/02/16 03:23:52;;;;;;;13.40;8.60;;;;;;;;;;5045129;28;20243;-71
2022/02/16 03:26:17;;;;;;;16.15;10.18;;;;;;;;;;5041579;28;20185;-70
2022/02/16 03:28:42;;;;;;;14.88;10.05;;;;;;;;;;5039937;28;20776;-71
2022/02/16 03:31:08;;;;;;;15.77;11.13;;;;;;;;;;5040539;28;20304;-72
2022/02/16 03:33:33;;;;;;;19.55;11.15;;;;;;;;;;5038208;28;20661;-72
2022/02/16 03:35:58;;;;;;;16.42;11.00;;;;;;;;;;5040645;28;20645;-72
2022/02/16 03:38:24;;;;;;;18.85;11.10;;;;;;;;;;5042584;28;20185;-71
2022/02/16 03:40:49;;;;;;;15.02;10.32;;;;;;;;;;5042651;28;20476;-71
2022/02/16 03:43:15;;;;;;;16.10;10.25;;;;;;;;;;5044030;28;20182;-70
2022/02/16 03:45:40;;;;;;;14.45;10.07;;;;;;;;;;5039535;28;20263;-70
2022/02/16 03:48:05;;;;;;;14.63;10.55;;;;;;;;;;5044653;28;20320;-70
2022/02/16 03:50:31;;;;;;;15.45;10.63;;;;;;;;;;5041664;28;20280;-70
2022/02/16 03:52:56;;;;;;;13.43;9.60;;;;;;;;;;5037461;28;20259;-69
2022/02/16 03:55:21;;;;;;;13.88;9.82;;;;;;;;;;5039404;28;20766;-69
2022/02/16 03:57:47;;;;;;;15.23;10.52;;;;;;;;;;5045356;28;20605;-69
2022/02/16 04:00:13;;;;;;;15.55;10.10;;;;;;;;;;5038888;28;20667;-69
2022/02/16 04:02:38;;;;;;;17.40;10.73;;;;;;;;;;5036743;28;20303;-69
2022/02/16 04:05:05;;;;;;;14.27;9.95;;;;;;;;;;5042861;28;20997;-69
2022/02/16 04:07:31;;;;;;;13.98;9.65;;;;;;;;;;5037277;28;20230;-69
2022/02/16 04:09:56;;;;;;;17.15;9.98;;;;;;;;;;5035566;28;20186;-69
2022/02/16 04:12:21;;;;;;;14.02;9.98;;;;;;;;;;5040626;28;20692;-68
2022/02/16 04:14:47;;;;;;;13.63;10.02;;;;;;;;;;5046329;28;20189;-69
2022/02/16 04:17:12;;;;;;;12.73;9.15;;;;;;;;;;5041598;28;20189;-69
2022/02/16 04:19:37;;;;;;;13.18;9.10;;;;;;;;;;5044571;28;20184;-70
2022/02/16 04:22:03;;;;;;;14.25;9.38;;;;;;;;;;5042327;28;20256;-70
2022/02/16 04:24:28;;;;;;;12.43;8.75;;;;;;;;;;5040555;28;20672;-70
2022/02/16 04:26:54;;;;;;;11.73;8.30;;;;;;;;;;5040515;28;20244;-70
2022/02/16 04:29:19;;;;;;;11.45;8.27;;;;;;;;;;5039070;28;20186;-70
2022/02/16 04:31:44;;;;;;;11.30;8.50;;;;;;;;;;5042249;28;20509;-70
2022/02/16 04:34:09;;;;;;;9.90;7.95;;;;;;;;;;5044142;28;20173;-71
2022/02/16 04:36:35;;;;;;;12.27;8.27;;;;;;;;;;5038711;28;20185;-70
2022/02/16 04:39:01;;;;;;;11.70;8.45;;;;;;;;;;5043264;28;20192;-70
2022/02/16 04:41:27;;;;;;;13.38;8.75;;;;;;;;;;5039561;28;20259;-69
2022/02/16 04:43:53;;;;;;;12.77;8.95;;;;;;;;;;5047644;28;20629;-68
2022/02/16 04:46:18;;;;;;;13.00;7.93;;;;;;;;;;5040630;28;20492;-68
2022/02/16 04:48:44;;;;;;;12.88;8.50;;;;;;;;;;5037630;28;20572;-68
2022/02/16 04:51:10;;;;;;;11.50;7.40;;;;;;;;;;5038789;28;20189;-68
2022/02/16 04:53:36;;;;;;;9.55;7.65;;;;;;;;;;5044445;28;20181;-68
2022/02/16 04:56:03;;;;;;;10.38;7.82;;;;;;;;;;5038060;28;20186;-68
2022/02/16 04:58:29;;;;;;;10.40;7.50;;;;;;;;;;5043138;28;20181;-68
2022/02/16 05:00:55;;;;;;;11.93;7.25;;;;;;;;;;5038323;28;20192;-68
2022/02/16 05:03:20;;;;;;;9.60;6.72;;;;;;;;;;5039658;28;20289;-69
2022/02/16 05:05:46;;;;;;;9.25;5.75;;;;;;;;;;5037146;28;20683;-68
2022/02/16 05:08:11;;;;;;;11.50;6.25;;;;;;;;;;5038364;28;20236;-68
2022/02/16 05:10:36;;;;;;;8.60;6.10;;;;;;;;;;5042586;28;20197;-68
2022/02/16 05:13:02;;;;;;;8.90;5.97;;;;;;;;;;5041459;28;20196;-68
2022/02/16 05:15:27;;;;;;;7.32;5.57;;;;;;;;;;5045242;28;20188;-68
2022/02/16 05:17:53;;;;;;;7.55;5.72;;;;;;;;;;5042261;28;20276;-68
2022/02/16 05:20:18;;;;;;;9.70;5.30;;;;;;;;;;5046737;28;20589;-68
2022/02/16 05:22:44;;;;;;;7.40;5.05;;;;;;;;;;5041503;28;20194;-68
2022/02/16 05:25:09;;;;;;;7.50;5.25;;;;;;;;;;5041754;28;20299;-67
2022/02/16 05:27:34;;;;;;;6.80;4.70;;;;;;;;;;5038022;28;20228;-67
2022/02/16 05:30:00;;;;;;;6.72;5.35;;;;;;;;;;5040430;28;20200;-68
2022/02/16 05:32:25;;;;;;;7.93;5.50;;;;;;;;;;5041278;28;20193;-67
2022/02/16 05:34:51;;;;;;;7.28;5.70;;;;;;;;;;5047998;28;20280;-67
2022/02/16 05:37:16;;;;;;;6.40;5.35;;;;;;;;;;5042617;28;20200;-67
2022/02/16 05:39:42;;;;;;;6.65;5.95;;;;;;;;;;5046473;28;20601;-67
2022/02/16 05:42:08;;;;;;;8.32;6.50;;;;;;;;;;5044320;28;20193;-67
2022/02/16 05:44:34;;;;;;;8.50;5.93;;;;;;;;;;5048493;28;20204;-68
2022/02/16 05:47:00;;;;;;;8.73;5.93;;;;;;;;;;5043880;28;20201;-68
2022/02/16 05:49:25;;;;;;;7.28;5.88;;;;;;;;;;5045622;28;20292;-68
2022/02/16 05:51:51;;;;;;;8.70;6.90;;;;;;;;;;5049126;28;20263;-66
2022/02/16 05:54:16;;;;;;;9.55;7.20;;;;;;;;;;5049858;28;20197;-67
2022/02/16 05:56:41;;;;;;;9.77;6.50;;;;;;;;;;5044831;28;20185;-66
2022/02/16 05:59:06;;;;;;;7.40;6.35;;;;;;;;;;5046000;28;20255;-68
2022/02/16 06:01:32;;;;;;;8.40;6.45;;;;;;;;;;5045305;28;20861;-67
2022/02/16 06:03:57;;;;;;;8.30;6.45;;;;;;;;;;5049412;28;20193;-68
2022/02/16 06:06:23;;;;;;;11.05;7.25;;;;;;;;;;5043286;28;20200;-67
2022/02/16 06:08:48;;;;;;;11.85;6.97;;;;;;;;;;5054431;28;20279;-69
2022/02/16 06:11:15;;;;;;;8.50;6.95;;;;;;;;;;5047356;28;20209;-72
2022/02/16 06:13:40;;;;;;;7.55;6.47;;;;;;;;;;5046731;28;20644;-72
2022/02/16 06:16:06;;;;;;;8.07;6.50;;;;;;;;;;5043382;28;20209;-71
2022/02/16 06:18:31;;;;;;;8.33;6.30;;;;;;;;;;5046719;28;20181;-70
2022/02/16 06:20:57;;;;;;;7.90;6.65;;;;;;;;;;5047018;28;20193;-71
2022/02/16 06:23:23;;;;;;;9.02;6.70;;;;;;;;;;5049182;28;20607;-70
2022/02/16 06:25:48;;;;;;;8.10;6.28;;;;;;;;;;5044389;28;20248;-70
2022/02/16 06:28:14;;;;;;;8.70;6.60;;;;;;;;;;5045934;28;20744;-70
2022/02/16 06:30:39;;;;;;;9.55;6.72;;;;;;;;;;5057161;28;20201;-70
2022/02/16 06:33:05;;;;;;;7.60;6.05;;;;;;;;;;5044540;28;20201;-69
2022/02/16 06:35:31;;;;;;;8.23;6.10;;;;;;;;;;5052854;28;20327;-70
2022/02/16 06:37:56;;;;;;;7.70;5.88;;;;;;;;;;5046453;28;20189;-69
2022/02/16 06:40:21;;;;;;;7.68;5.88;;;;;;;;;;5055324;28;20215;-70
2022/02/16 06:42:47;;;;;;;8.05;6.55;;;;;;;;;;5044162;28;20699;-69
2022/02/16 06:45:12;;;;;;;7.38;5.20;;;;;;;;;;5054841;28;20246;-69
2022/02/16 06:47:38;;;;;;;7.13;5.50;;;;;;;;;;5044295;28;20189;-69
2022/02/16 06:50:05;;;;;;;6.35;5.15;;;;;;;;;;5045487;28;20185;-71
2022/02/16 06:52:30;;;;;;;5.55;4.72;;;;;;;;;;5041675;28;20260;-68
2022/02/16 06:54:56;;;;;;;5.95;4.95;;;;;;;;;;5050699;28;20640;-70
2022/02/16 06:57:21;;;;;;;6.28;4.60;;;;;;;;;;5043893;28;20701;-70
2022/02/16 06:59:46;;;;;;;5.70;4.50;;;;;;;;;;5051433;28;20192;-70
2022/02/16 07:02:12;;;;;;;7.28;5.00;;;;;;;;;;5040803;28;20196;-69
2022/02/16 07:04:37;;;;;;;5.72;4.50;;;;;;;;;;5045353;28;20217;-68
2022/02/16 07:07:04;;;;;;;6.93;4.47;;;;;;;;;;5044337;28;20276;-70
2022/02/16 07:09:29;;;;;;;5.85;4.45;;;;;;;;;;5039010;28;20386;-70
2022/02/16 07:11:55;;;;;;;6.20;4.68;;;;;;;;;;5055073;28;20189;-70
2022/02/16 07:14:21;;;;;;;6.95;4.68;;;;;;;;;;5044856;28;20212;-72
2022/02/16 07:16:47;;;;;;;5.22;4.65;;;;;;;;;;5049790;28;20184;-71
2022/02/16 07:19:13;;;;;;;5.78;4.68;;;;;;;;;;5045017;28;20679;-70
2022/02/16 07:21:38;;;;;;;5.55;4.47;;;;;;;;;;5040279;28;20185;-71
2022/02/16 07:24:04;;;;;;;5.30;4.30;;;;;;;;;;5040860;28;20284;-69
2022/02/16 07:26:30;;;;;;;5.85;4.20;;;;;;;;;;5043579;28;20188;-70
2022/02/16 07:28:55;;;;;;;4.85;3.83;;;;;;;;;;5044222;28;20213;-71
2022/02/16 07:31:21;;;;;;;5.28;4.30;;;;;;;;;;5045338;28;20201;-70
2022/02/16 07:33:47;;;;;;;4.90;3.88;;;;;;;;;;5043120;28;20192;-70
2022/02/16 07:36:13;;;;;;;5.50;4.00;;;;;;;;;;5046431;28;20252;-73
2022/02/16 07:38:38;;;;;;;6.85;3.80;;;;;;;;;;5041725;28;20193;-74
2022/02/16 07:41:04;;;;;;;6.22;3.58;;;;;;;;;;5041316;28;20648;-73
2022/02/16 07:43:29;;;;;;;3.70;3.40;;;;;;;;;;5042381;28;20266;-72
2022/02/16 07:45:55;;;;;;;4.05;3.35;;;;;;;;;;5043460;28;20209;-72
2022/02/16 07:48:21;;;;;;;3.72;3.03;;;;;;;;;;5042356;28;20656;-74
2022/02/16 07:50:47;;;;;;;4.40;3.55;;;;;;;;;;5042047;28;20189;-71
2022/02/16 07:53:14;;;;;;;4.10;2.95;;;;;;;;;;5045008;28;20602;-70
2022/02/16 07:55:40;;;;;;;3.10;2.78;;;;;;;;;;5042991;28;20177;-70
2022/02/16 07:58:06;;;;;;;3.65;2.63;;;;;;;;;;5043218;28;20174;-70
2022/02/16 08:00:32;;;;;;;2.80;2.50;;;;;;;;;;5040710;28;20186;-70
2022/02/16 08:02:58;;;;;;;3.15;2.70;;;;;;;;;;5042476;28;20215;-70
2022/02/16 08:05:24;;;;;;;2.75;2.28;;;;;;;;;;5044175;28;20300;-69
2022/02/16 08:07:50;;;;;;;3.88;2.13;;;;;;;;;;5042099;28;20233;-70
2022/02/16 08:10:15;;;;;;;2.85;2.55;;;;;;;;;;5041776;28;20192;-69
2022/02/16 08:12:45;;;;;;;2.83;2.40;;;;;;;;;;5046611;28;20177;-69
2022/02/16 08:15:11;;;;;;;2.92;2.55;;;;;;;;;;5040503;28;20243;-68
2022/02/16 08:17:38;;;;;;;2.30;2.10;;;;;;;;;;5046640;28;20277;-69
2022/02/16 08:20:06;;;;;;;3.33;2.00;;;;;;;;;;5040155;28;20336;-67
2022/02/16 08:22:31;;;;;;;3.83;2.28;;;;;;;;;;5042738;28;20181;-70
2022/02/16 08:24:57;;;;;;;2.35;2.15;;;;;;;;;;5042429;28;20378;-69
2022/02/16 08:27:22;;;;;;;3.60;2.60;;;;;;;;;;5045593;28;20605;-68
2022/02/16 08:29:47;;;;;;;4.20;2.25;;;;;;;;;;5044830;28;20651;-69
2022/02/16 08:32:13;;;;;;;3.55;2.20;;;;;;;;;;5044194;28;20229;-69
2022/02/16 08:34:38;;;;;;;2.75;2.42;;;;;;;;;;5044960;28;20535;-68
2022/02/16 08:37:03;;;;;;;2.20;2.00;;;;;;;;;;5041873;28;20193;-70
2022/02/16 08:39:29;;;;;;;2.28;2.05;;;;;;;;;;5049675;28;20629;-70
2022/02/16 08:41:55;;;;;;;2.80;2.50;;;;;;;;;;5050545;28;20185;-70
2022/02/16 08:44:21;;;;;;;2.38;2.10;;;;;;;;;;5045202;28;20738;-70
2022/02/16 08:46:46;;;;;;;3.15;2.00;;;;;;;;;;5044645;28;20216;-70
2022/02/16 08:49:12;;;;;;;2.30;2.05;;;;;;;;;;5049750;28;20649;-69
2022/02/16 08:51:37;;;;;;;2.65;1.92;;;;;;;;;;5047403;28;20458;-68
2022/02/16 08:54:03;;;;;;;2.53;2.30;;;;;;;;;;5052789;28;20611;-70
2022/02/16 08:56:29;;;;;;;2.67;2.00;;;;;;;;;;5047205;28;20196;-71
2022/02/16 08:58:56;;;;;;;2.40;2.20;;;;;;;;;;5042166;28;20180;-70
2022/02/16 09:01:21;;;;;;;3.33;2.17;;;;;;;;;;5040262;28;20279;-70
2022/02/16 09:03:46;;;;;;;1.98;1.77;;;;;;;;;;5060373;28;20268;-69
2022/02/16 09:06:12;;;;;;;2.78;1.95;;;;;;;;;;5045802;28;20197;-69
2022/02/16 09:08:37;;;;;;;2.78;1.90;;;;;;;;;;5055135;28;20193;-69
2022/02/16 09:11:03;;;;;;;2.13;1.88;;;;;;;;;;5042772;28;20806;-69
2022/02/16 09:13:28;;;;;;;2.30;1.70;;;;;;;;;;5060052;28;20206;-70
2022/02/16 09:15:53;;;;;;;2.25;1.92;;;;;;;;;;5049203;28;20227;-69
2022/02/16 09:18:19;;;;;;;2.17;1.85;;;;;;;;;;5059557;28;20181;-70
2022/02/16 09:20:46;;;;;;;1.75;1.65;;;;;;;;;;5053300;28;20181;-69
2022/02/16 09:23:13;;;;;;;2.58;1.95;;;;;;;;;;5058707;28;20426;-70
2022/02/16 09:25:38;;;;;;;2.30;1.88;;;;;;;;;;5051982;28;20628;-70
2022/02/16 09:28:04;;;;;;;2.05;1.70;;;;;;;;;;5055303;28;20284;-69
2022/02/16 09:30:30;;;;;;;2.38;1.70;;;;;;;;;;5058040;28;20200;-70
2022/02/16 09:32:55;;;;;;;2.35;1.83;;;;;;;;;;5052488;28;20699;-70
2022/02/16 09:35:21;;;;;;;2.83;1.80;;;;;;;;;;5053902;28;20276;-69
2022/02/16 09:37:47;;;;;;;1.98;1.73;;;;;;;;;;5050431;28;20184;-68
2022/02/16 09:40:13;;;;;;;2.95;1.50;;;;;;;;;;5056329;28;20185;-69
2022/02/16 09:42:38;;;;;;;2.03;1.83;;;;;;;;;;5052941;28;20197;-69
2022/02/16 09:45:05;;;;;;;1.90;1.50;;;;;;;;;;5058027;28;20208;-68
2022/02/16 09:47:34;;;;;;;3.45;1.55;;;;;;;;;;5046467;28;20201;-69
2022/02/16 09:50:00;;;;;;;3.00;1.50;;;;;;;;;;5057049;28;20675;-68
2022/02/16 09:52:27;;;;;;;1.60;1.50;;;;;;;;;;5051978;28;20202;-68
2022/02/16 09:54:53;;;;;;;1.85;1.48;;;;;;;;;;5052447;28;20672;-68
2022/02/16 09:57:19;;;;;;;2.08;1.48;;;;;;;;;;5045299;28;20201;-69
2022/02/16 09:59:44;;;;;;;1.92;1.70;;;;;;;;;;5049044;28;20185;-68
2022/02/16 10:02:15;;;;;;;2.72;2.00;;;;;;;;;;5044065;28;20602;-68
2022/02/16 10:04:53;;;;;;;4.15;2.30;;;;;;;;;;5044331;28;20201;-68
2022/02/16 10:07:26;;;;;;;3.28;2.40;;;;;;;;;;5052383;28;20228;-69
2022/02/16 10:09:52;;;;;;;5.00;3.03;;;;;;;;;;5046649;28;20211;-68
2022/02/16 10:12:18;;;;;;;4.75;3.30;;;;;;;;;;5052078;28;20177;-68
2022/02/16 10:14:45;;;;;;;5.07;3.05;;;;;;;;;;5045926;28;20196;-68
2022/02/16 10:17:21;;;;;;;4.68;3.72;;;;;;;;;;5058822;28;20312;-69
2022/02/16 10:19:49;;;;;;;7.63;4.40;;;;;;;;;;5046312;28;20180;-69
2022/02/16 10:22:16;;;;;;;9.27;4.10;;;;;;;;;;5054388;28;20236;-68
2022/02/16 10:24:43;;;;;;;6.30;4.07;;;;;;;;;;5044294;28;20201;-68
2022/02/16 10:27:09;;;;;;;6.45;4.65;;;;;;;;;;5045931;28;20194;-68
2022/02/16 10:29:35;;;;;;;8.50;4.38;;;;;;;;;;5044345;28;20203;-69
2022/02/16 10:32:02;;;;;;;8.27;4.63;;;;;;;;;;5053642;28;20569;-68
2022/02/16 10:34:54;;;;;;;7.55;5.43;;;;;;;;;;5047279;28;20189;-68
2022/02/16 10:37:29;;;;;;;10.10;5.78;;;;;;;;;;5053063;28;20185;-68
2022/02/16 10:40:16;;;;;;;11.35;5.53;;;;;;;;;;5050318;28;20656;-68
2022/02/16 10:42:53;;;;;;;11.00;6.35;;;;;;;;;;5047799;28;20185;-68
2022/02/16 10:45:21;;;;;;;10.10;5.80;;;;;;;;;;5051732;28;20255;-68
2022/02/16 10:48:07;;;;;;;12.98;6.15;;;;;;;;;;5043988;28;20221;-68
2022/02/16 10:50:47;;;;;;;16.67;6.80;;;;;;;;;;5047201;28;20645;-68
2022/02/16 10:53:13;;;;;;;12.27;6.53;;;;;;;;;;5045744;28;20192;-68
2022/02/16 10:55:44;;;;;;;12.98;6.10;;;;;;;;;;5045392;28;20181;-68
2022/02/16 10:58:13;;;;;;;12.57;6.85;;;;;;;;;;5050606;28;20181;-68
2022/02/16 11:00:40;;;;;;;16.20;7.10;;;;;;;;;;5050703;28;20545;-68
2022/02/16 11:03:07;;;;;;;15.10;6.05;;;;;;;;;;5051649;28;20181;-68
2022/02/16 11:05:44;;;;;;;16.30;6.78;;;;;;;;;;5051709;28;20213;-68
2022/02/16 11:08:13;;;;;;;14.82;6.10;;;;;;;;;;5046411;28;20240;-68
2022/02/16 11:10:44;;;;;;;21.80;6.65;;;;;;;;;;5041537;28;20807;-68
2022/02/16 11:13:11;;;;;;;16.52;5.50;;;;;;;;;;5055004;28;20724;-68
2022/02/16 11:15:37;;;;;;;12.50;5.18;;;;;;;;;;5048870;28;20178;-68
2022/02/16 11:18:17;;;;;;;11.65;5.47;;;;;;;;;;5056100;28;20187;-68
2022/02/16 11:20:42;;;;;;;14.68;5.45;;;;;;;;;;5045781;28;20197;-68
2022/02/16 11:23:08;;;;;;;12.77;4.63;;;;;;;;;;5056590;28;20190;-68
2022/02/16 11:25:36;;;;;;;7.38;4.32;;;;;;;;;;5043179;28;20268;-68
2022/02/16 11:28:05;;;;;;;14.40;4.97;;;;;;;;;;5047879;28;20193;-67
2022/02/16 11:30:36;;;;;;;12.57;4.35;;;;;;;;;;5041673;28;20202;-68
2022/02/16 11:33:16;;;;;;;10.38;4.07;;;;;;;;;;5043959;28;20189;-68
2022/02/16 11:35:57;;;;;;;15.77;4.38;;;;;;;;;;5047072;28;20181;-67
2022/02/16 11:38:24;;;;;;;7.65;3.25;;;;;;;;;;5043814;28;20584;-68
2022/02/16 11:40:55;;;;;;;11.93;3.72;;;;;;;;;;5052818;28;20499;-67
2022/02/16 11:43:43;;;;;;;10.95;3.42;;;;;;;;;;5046221;28;20185;-68
2022/02/16 11:46:08;;;;;;;9.95;2.92;;;;;;;;;;5042786;28;20703;-68
2022/02/16 11:48:44;;;;;;;10.63;2.90;;;;;;;;;;5047315;28;20188;-68
2022/02/16 11:51:25;;;;;;;8.85;3.58;;;;;;;;;;5042411;28;20219;-67
2022/02/16 11:53:51;;;;;;;13.65;2.90;;;;;;;;;;5045844;28;20234;-67
2022/02/16 11:56:19;;;;;;;8.57;2.60;;;;;;;;;;5043893;28;20267;-67
2022/02/16 11:59:14;;;;;;;12.55;2.63;;;;;;;;;;5047360;28;20252;-67
2022/02/16 12:02:12;;;;;;;10.80;2.55;;;;;;;;;;5040407;28;20230;-68
2022/02/16 12:04:49;;;;;;;10.57;2.38;;;;;;;;;;5045428;28;20239;-67
2022/02/16 12:07:27;;;;;;;10.45;2.60;;;;;;;;;;5037645;28;20294;-67
2022/02/16 12:10:18;;;;;;;6.38;2.35;;;;;;;;;;5044063;28;20238;-68
2022/02/16 12:12:46;;;;;;;12.52;2.15;;;;;;;;;;5046198;28;20551;-68
2022/02/16 12:15:12;;;;;;;12.05;2.20;;;;;;;;;;5042894;28;20603;-67
2022/02/16 12:17:38;;;;;;;10.90;2.30;;;;;;;;;;5053013;28;20469;-67
2022/02/16 12:20:05;;;;;;;12.85;2.22;;;;;;;;;;5043148;28;20741;-68
2022/02/16 12:22:32;;;;;;;9.38;2.35;;;;;;;;;;5043239;28;20248;-67
2022/02/16 12:25:08;;;;;;;12.20;2.30;;;;;;;;;;5041178;28;20209;-67
2022/02/16 12:27:33;;;;;;;11.13;2.22;;;;;;;;;;5051144;28;20193;-67
2022/02/16 12:30:02;;;;;;;6.35;2.20;;;;;;;;;;5041636;28;20200;-67
2022/02/16 12:32:27;;;;;;;14.48;2.80;;;;;;;;;;5047813;28;20676;-67
2022/02/16 12:34:53;;;;;;;8.10;2.13;;;;;;;;;;5044540;28;20224;-68
2022/02/16 12:37:20;;;;;;;14.30;2.00;;;;;;;;;;5040908;28;20586;-67
2022/02/16 12:39:58;;;;;;;12.73;2.35;;;;;;;;;;5044636;28;20192;-67
2022/02/16 12:42:44;;;;;;;9.77;2.88;;;;;;;;;;5043329;28;20234;-68
2022/02/16 12:45:17;;;;;;;14.05;2.55;;;;;;;;;;5044183;28;20555;-67
2022/02/16 12:47:43;;;;;;;11.93;2.63;;;;;;;;;;5042116;28;20333;-67
2022/02/16 12:50:11;;;;;;;15.10;3.00;;;;;;;;;;5049264;28;20185;-67
2022/02/16 12:52:37;;;;;;;9.90;2.80;;;;;;;;;;5042348;28;20194;-68
2022/02/16 12:55:04;;;;;;;12.45;3.65;;;;;;;;;;5046289;28;20203;-67
2022/02/16 12:57:30;;;;;;;13.63;2.72;;;;;;;;;;5045211;28;20193;-67
2022/02/16 13:02:50;;;;;;;12.93;3.03;;;;;;;;;;5043931;28;20245;-67
2022/02/16 13:05:15;;;;;;;12.20;3.50;;;;;;;;;;5045548;28;20618;-67
2022/02/16 13:07:40;;;;;;;11.40;3.05;;;;;;;;;;5044809;28;20264;-67
2022/02/16 13:10:09;;;;;;;16.88;3.08;;;;;;;;;;5044860;28;20216;-67
2022/02/16 13:12:40;;;;;;;15.00;2.42;;;;;;;;;;5043229;28;20199;-67
2022/02/16 13:15:08;;;;;;;13.77;2.40;;;;;;;;;;5042036;28;20272;-67
2022/02/16 13:17:53;;;;;;;13.73;2.75;;;;;;;;;;5042336;28;20181;-67
2022/02/16 13:20:29;;;;;;;11.23;2.85;;;;;;;;;;5041088;28;20537;-67
2022/02/16 13:22:57;;;;;;;14.23;2.75;;;;;;;;;;5043412;28;20188;-68
2022/02/16 13:25:41;;;;;;;18.40;3.08;;;;;;;;;;5041274;28;20617;-68
2022/02/16 13:28:16;;;;;;;17.15;3.08;;;;;;;;;;5049712;28;20506;-68
2022/02/16 13:30:42;;;;;;;18.27;3.50;;;;;;;;;;5047393;28;20715;-68
2022/02/16 13:33:19;;;;;;;14.90;3.60;;;;;;;;;;5043089;28;20186;-68
2022/02/16 13:35:55;;;;;;;15.07;3.53;;;;;;;;;;5043227;28;20181;-66
2022/02/16 13:38:25;;;;;;;19.08;4.30;;;;;;;;;;5038705;28;20198;-68
2022/02/16 13:41:21;;;;;;;15.38;4.50;;;;;;;;;;5047748;28;20208;-68
2022/02/16 13:43:51;;;;;;;14.23;4.32;;;;;;;;;;5041414;28;20189;-67
2022/02/16 13:46:20;;;;;;;13.25;3.55;;;;;;;;;;5050092;28;20209;-67
2022/02/16 13:48:46;;;;;;;10.98;4.20;;;;;;;;;;5042903;28;20656;-67
2022/02/16 13:51:18;;;;;;;13.88;3.83;;;;;;;;;;5047858;28;20196;-67
2022/02/16 13:53:49;;;;;;;11.13;3.80;;;;;;;;;;5040454;28;20287;-67
2022/02/16 13:56:16;;;;;;;13.15;3.88;;;;;;;;;;5042748;28;20243;-66
2022/02/16 13:58:42;;;;;;;18.15;3.90;;;;;;;;;;5040258;28;20551;-66
2022/02/16 14:01:15;;;;;;;16.10;4.07;;;;;;;;;;5046068;28;20396;-67
2022/02/16 14:03:43;;;;;;;13.88;3.05;;;;;;;;;;5041902;28;20182;-67
2022/02/16 14:06:13;;;;;;;17.60;3.78;;;;;;;;;;5047765;28;20201;-67
2022/02/16 14:08:40;;;;;;;15.40;3.42;;;;;;;;;;5044018;28;20272;-67
2022/02/16 14:11:07;;;;;;;19.20;3.40;;;;;;;;;;5040114;28;20196;-67
2022/02/16 14:13:36;;;;;;;19.45;3.45;;;;;;;;;;5047312;28;20185;-67
2022/02/16 14:16:06;;;;;;;13.02;3.15;;;;;;;;;;5045635;28;20284;-67
2022/02/16 14:18:32;;;;;;;14.65;2.95;;;;;;;;;;5045335;28;20231;-67
2022/02/16 14:21:03;;;;;;;15.68;2.95;;;;;;;;;;5044932;28;20269;-66
2022/02/16 14:23:30;;;;;;;17.33;3.08;;;;;;;;;;5049745;28;20194;-67
2022/02/16 14:25:55;;;;;;;18.17;2.97;;;;;;;;;;5044374;28;20521;-66
2022/02/16 14:28:20;;;;;;;14.95;3.00;;;;;;;;;;5046945;28;20185;-67
2022/02/16 14:30:46;;;;;;;17.00;2.90;;;;;;;;;;5042844;28;20292;-66
2022/02/16 14:33:11;;;;;;;15.20;2.75;;;;;;;;;;5046089;28;20189;-67
2022/02/16 14:35:36;;;;;;;17.85;2.75;;;;;;;;;;5047253;28;20588;-67
2022/02/16 14:38:02;;;;;;;21.42;3.38;;;;;;;;;;5041625;28;20197;-67
2022/02/16 14:40:27;;;;;;;17.15;3.08;;;;;;;;;;5045399;28;20550;-66